Time;durP1;ratioP1;P1;durP2;ratioP2;P2;SDS_P1;SDS_P2;PMS_P1;PMS_P2;Temp;Humidity;BMP_temperature;BMP_pressure;BME280_temperature;BME280_humidity;BME280_pressure;Samples;Min_cycle;Max_cycle;Signal;HPM_P1;HPM_P2
2023/08/31 00:01:32;;;;;;;31.75;16.17;;;;;;;;;;4997404;28;20041;-62
2023/08/31 00:04:01;;;;;;;21.20;13.75;;;;;;;;;;5006135;28;20211;-60
2023/08/31 00:06:28;;;;;;;32.03;14.57;;;;;;;;;;5005842;28;20052;-62
2023/08/31 00:08:54;;;;;;;41.33;16.45;;;;;;;;;;5006455;28;20041;-63
2023/08/31 00:11:21;;;;;;;26.38;15.65;;;;;;;;;;5005907;28;20097;-59
2023/08/31 00:13:47;;;;;;;29.08;15.10;;;;;;;;;;5006373;28;20056;-60
2023/08/31 00:16:14;;;;;;;31.88;15.82;;;;;;;;;;5006513;28;20048;-63
2023/08/31 00:18:41;;;;;;;42.92;17.33;;;;;;;;;;4996876;28;20143;-60
2023/08/31 00:21:08;;;;;;;25.27;14.90;;;;;;;;;;4990249;28;20411;-62
2023/08/31 00:23:54;;;;;;;35.58;15.82;;;;;;;;;;4986375;28;20042;-60
2023/08/31 00:26:21;;;;;;;29.90;15.07;;;;;;;;;;4976512;28;20143;-61
2023/08/31 00:28:47;;;;;;;24.75;14.80;;;;;;;;;;4985858;28;20154;-63
2023/08/31 00:31:14;;;;;;;27.70;15.20;;;;;;;;;;4986792;28;20038;-60
2023/08/31 00:33:40;;;;;;;29.05;17.27;;;;;;;;;;4985341;28;20399;-59
2023/08/31 00:36:08;;;;;;;24.23;14.30;;;;;;;;;;4986314;28;20148;-63
2023/08/31 00:38:35;;;;;;;33.13;16.88;;;;;;;;;;4985210;28;20514;-68
2023/08/31 00:41:02;;;;;;;33.22;16.58;;;;;;;;;;4987410;28;20212;-65
2023/08/31 00:43:29;;;;;;;31.13;16.38;;;;;;;;;;4985563;28;20108;-65
2023/08/31 00:45:58;;;;;;;36.72;17.10;;;;;;;;;;4986321;28;20504;-64
2023/08/31 00:48:25;;;;;;;27.35;15.50;;;;;;;;;;4984389;28;20099;-68
2023/08/31 00:50:52;;;;;;;37.58;16.20;;;;;;;;;;4987489;28;21345;-64
2023/08/31 00:53:18;;;;;;;33.25;16.88;;;;;;;;;;4988781;28;20042;-69
2023/08/31 00:55:45;;;;;;;31.95;16.13;;;;;;;;;;4975648;28;20037;-63
2023/08/31 00:58:12;;;;;;;30.08;15.55;;;;;;;;;;4989715;28;20042;-63
2023/08/31 01:00:48;;;;;;;31.05;16.83;;;;;;;;;;4987533;28;20048;-65
2023/08/31 01:03:29;;;;;;;29.92;16.50;;;;;;;;;;5000631;28;20041;-65
2023/08/31 01:06:09;;;;;;;26.83;17.30;;;;;;;;;;4998480;28;20499;-62
2023/08/31 01:08:49;;;;;;;25.67;16.23;;;;;;;;;;4998191;28;20033;-68
2023/08/31 01:11:25;;;;;;;32.90;17.40;;;;;;;;;;4989585;28;20042;-57
2023/08/31 01:13:58;;;;;;;30.80;16.15;;;;;;;;;;4989204;28;20458;-61
2023/08/31 01:16:25;;;;;;;27.92;17.38;;;;;;;;;;4988382;28;20384;-63
2023/08/31 01:18:53;;;;;;;29.33;15.73;;;;;;;;;;4988796;28;20569;-59
2023/08/31 01:21:31;;;;;;;30.02;16.63;;;;;;;;;;4987730;28;20569;-59
2023/08/31 01:23:58;;;;;;;25.10;15.57;;;;;;;;;;4987001;28;20058;-62
2023/08/31 01:26:25;;;;;;;29.90;16.05;;;;;;;;;;4987237;28;20049;-60
2023/08/31 01:28:52;;;;;;;28.85;16.92;;;;;;;;;;4987786;28;20113;-60
2023/08/31 01:31:20;;;;;;;27.40;15.75;;;;;;;;;;4986806;28;20064;-63
2023/08/31 01:33:47;;;;;;;30.13;16.20;;;;;;;;;;4999768;28;20486;-59
2023/08/31 01:36:25;;;;;;;27.90;15.95;;;;;;;;;;5006744;28;20087;-66
2023/08/31 01:38:56;;;;;;;31.00;17.13;;;;;;;;;;4988943;28;20041;-61
2023/08/31 01:41:23;;;;;;;34.10;17.25;;;;;;;;;;4999581;28;20579;-64
2023/08/31 01:43:51;;;;;;;25.98;16.30;;;;;;;;;;4995462;28;20049;-61
2023/08/31 01:46:18;;;;;;;30.67;16.98;;;;;;;;;;4989306;28;20435;-60
2023/08/31 01:48:44;;;;;;;26.67;16.92;;;;;;;;;;4970595;28;20495;-61
2023/08/31 01:51:12;;;;;;;29.08;17.27;;;;;;;;;;4991934;28;20042;-62
2023/08/31 01:53:39;;;;;;;27.95;16.10;;;;;;;;;;4993265;28;20099;-61
2023/08/31 01:56:05;;;;;;;33.25;18.00;;;;;;;;;;4993538;28;20096;-62
2023/08/31 01:58:32;;;;;;;28.50;17.05;;;;;;;;;;4992302;28;20399;-62
2023/08/31 02:00:59;;;;;;;26.52;15.07;;;;;;;;;;4993128;28;20362;-60
2023/08/31 02:03:25;;;;;;;36.05;17.33;;;;;;;;;;4993045;28;20053;-63
2023/08/31 02:05:52;;;;;;;30.02;16.42;;;;;;;;;;4992751;28;20042;-64
2023/08/31 02:08:19;;;;;;;30.92;17.20;;;;;;;;;;4991286;28;20038;-63
2023/08/31 02:10:48;;;;;;;31.67;18.70;;;;;;;;;;4991244;28;20117;-64
2023/08/31 02:13:16;;;;;;;30.63;16.70;;;;;;;;;;4991839;28;20033;-61
2023/08/31 02:15:42;;;;;;;27.52;16.95;;;;;;;;;;4991044;28;20048;-59
2023/08/31 02:18:09;;;;;;;31.30;16.83;;;;;;;;;;4990939;28;20180;-60
2023/08/31 02:20:36;;;;;;;29.75;17.38;;;;;;;;;;5006293;28;20033;-62
2023/08/31 02:23:03;;;;;;;28.05;16.67;;;;;;;;;;4991953;28;20042;-59
2023/08/31 02:25:29;;;;;;;29.80;16.90;;;;;;;;;;4994767;28;20112;-62
2023/08/31 02:27:56;;;;;;;29.60;17.58;;;;;;;;;;4997475;28;20501;-58
2023/08/31 02:30:22;;;;;;;28.27;17.02;;;;;;;;;;4994621;28;20053;-60
2023/08/31 02:32:49;;;;;;;28.25;16.33;;;;;;;;;;4992983;28;20046;-59
2023/08/31 02:35:16;;;;;;;31.35;17.40;;;;;;;;;;4991273;28;20517;-60
2023/08/31 02:37:42;;;;;;;32.30;17.15;;;;;;;;;;4988940;28;20115;-62
2023/08/31 02:40:09;;;;;;;28.83;16.33;;;;;;;;;;4994506;28;20044;-60
2023/08/31 02:42:36;;;;;;;33.35;17.52;;;;;;;;;;4991294;28;20174;-63
2023/08/31 02:45:02;;;;;;;28.67;16.23;;;;;;;;;;4995413;28;20470;-60
2023/08/31 02:47:29;;;;;;;28.15;16.98;;;;;;;;;;4992864;28;20079;-60
2023/08/31 02:49:56;;;;;;;30.30;16.52;;;;;;;;;;4995177;28;20133;-58
2023/08/31 02:52:22;;;;;;;31.65;17.40;;;;;;;;;;4993055;28;20447;-60
2023/08/31 02:54:49;;;;;;;29.38;16.50;;;;;;;;;;4994546;28;20763;-59
2023/08/31 02:57:19;;;;;;;31.55;16.85;;;;;;;;;;4996823;28;20046;-60
2023/08/31 02:59:46;;;;;;;36.00;18.25;;;;;;;;;;4992099;28;20041;-60
2023/08/31 03:02:13;;;;;;;27.23;16.65;;;;;;;;;;5007888;28;20434;-62
2023/08/31 03:04:39;;;;;;;33.38;17.60;;;;;;;;;;4992691;28;20112;-59
2023/08/31 03:07:07;;;;;;;33.58;17.25;;;;;;;;;;4989370;28;20096;-60
2023/08/31 03:09:33;;;;;;;33.05;17.52;;;;;;;;;;4988637;28;20081;-59
2023/08/31 03:12:00;;;;;;;33.63;18.58;;;;;;;;;;5004408;28;20034;-60
2023/08/31 03:14:26;;;;;;;34.58;16.92;;;;;;;;;;5005540;28;20073;-63
2023/08/31 03:16:53;;;;;;;30.92;16.95;;;;;;;;;;4993348;28;20042;-59
2023/08/31 03:19:20;;;;;;;37.35;17.88;;;;;;;;;;4989340;28;20391;-62
2023/08/31 03:21:46;;;;;;;34.65;16.02;;;;;;;;;;4989600;28;20063;-63
2023/08/31 03:24:13;;;;;;;31.08;17.05;;;;;;;;;;4992505;28;20129;-59
2023/08/31 03:26:39;;;;;;;31.35;17.23;;;;;;;;;;4990197;28;20144;-59
2023/08/31 03:29:06;;;;;;;31.15;17.52;;;;;;;;;;4993110;28;20088;-58
2023/08/31 03:31:32;;;;;;;30.15;17.08;;;;;;;;;;4990732;28;20137;-59
2023/08/31 03:33:59;;;;;;;28.67;16.60;;;;;;;;;;4988810;28;20045;-59
2023/08/31 03:36:26;;;;;;;35.03;18.00;;;;;;;;;;4990441;28;20034;-61
2023/08/31 03:38:52;;;;;;;30.85;17.60;;;;;;;;;;4992967;28;20041;-59
2023/08/31 03:41:19;;;;;;;33.13;18.08;;;;;;;;;;4990216;28;21407;-60
2023/08/31 03:43:45;;;;;;;34.47;17.63;;;;;;;;;;4991575;28;20053;-59
2023/08/31 03:46:13;;;;;;;29.27;17.15;;;;;;;;;;4994231;28;20552;-59
2023/08/31 03:48:40;;;;;;;36.42;19.20;;;;;;;;;;4992772;28;20042;-61
2023/08/31 03:51:07;;;;;;;32.15;18.25;;;;;;;;;;4997264;28;20034;-62
2023/08/31 03:53:33;;;;;;;32.17;18.73;;;;;;;;;;4989764;28;20141;-59
2023/08/31 03:56:00;;;;;;;29.42;17.40;;;;;;;;;;4988337;28;20045;-61
2023/08/31 03:58:27;;;;;;;32.22;18.85;;;;;;;;;;4987714;28;20041;-63
2023/08/31 04:00:54;;;;;;;31.77;18.38;;;;;;;;;;5004847;28;20037;-60
2023/08/31 04:03:21;;;;;;;33.55;19.58;;;;;;;;;;4989294;28;20072;-60
2023/08/31 04:05:48;;;;;;;32.90;18.85;;;;;;;;;;4991925;28;20099;-60
2023/08/31 04:08:15;;;;;;;33.70;20.13;;;;;;;;;;4989432;28;20048;-58
2023/08/31 04:10:41;;;;;;;35.65;20.15;;;;;;;;;;4989219;28;20352;-59
2023/08/31 04:13:08;;;;;;;33.40;19.48;;;;;;;;;;5021508;28;20037;-60
2023/08/31 04:15:35;;;;;;;34.92;20.40;;;;;;;;;;5025656;28;20124;-61
2023/08/31 04:18:02;;;;;;;42.63;21.05;;;;;;;;;;5026204;28;20117;-58
2023/08/31 04:20:29;;;;;;;33.20;21.33;;;;;;;;;;5026033;28;20551;-65
2023/08/31 04:22:56;;;;;;;38.47;19.75;;;;;;;;;;5001879;28;20080;-62
2023/08/31 04:25:23;;;;;;;37.00;21.02;;;;;;;;;;5027166;28;20064;-59
2023/08/31 04:28:10;;;;;;;32.17;20.00;;;;;;;;;;5031281;28;20333;-58
2023/08/31 04:30:36;;;;;;;35.22;21.17;;;;;;;;;;5011249;28;20045;-58
2023/08/31 04:33:04;;;;;;;34.42;20.60;;;;;;;;;;5011645;28;20037;-60
2023/08/31 04:35:31;;;;;;;36.17;20.77;;;;;;;;;;5010738;28;20081;-62
2023/08/31 04:37:58;;;;;;;33.78;19.45;;;;;;;;;;5012533;28;20053;-61
2023/08/31 04:40:24;;;;;;;36.60;20.45;;;;;;;;;;5011899;28;20045;-59
2023/08/31 04:42:51;;;;;;;36.30;20.00;;;;;;;;;;5012527;28;20049;-62
2023/08/31 04:45:18;;;;;;;32.30;19.65;;;;;;;;;;5011182;28;20397;-66
2023/08/31 04:47:45;;;;;;;37.80;21.27;;;;;;;;;;5012042;28;20530;-57
2023/08/31 04:50:11;;;;;;;36.30;21.42;;;;;;;;;;5012484;28;20518;-60
2023/08/31 04:52:38;;;;;;;34.80;20.45;;;;;;;;;;5010628;28;23014;-61
2023/08/31 04:55:11;;;;;;;38.50;21.05;;;;;;;;;;5010576;28;20041;-60
2023/08/31 04:57:37;;;;;;;32.53;20.50;;;;;;;;;;5007093;28;20042;-60
2023/08/31 05:00:04;;;;;;;37.10;21.33;;;;;;;;;;5020641;28;20041;-59
2023/08/31 05:02:31;;;;;;;38.72;21.13;;;;;;;;;;5005430;28;20038;-59
2023/08/31 05:04:57;;;;;;;37.25;21.48;;;;;;;;;;4993706;28;20548;-60
2023/08/31 05:07:24;;;;;;;35.40;21.27;;;;;;;;;;4999395;28;20520;-61
2023/08/31 05:09:51;;;;;;;37.38;21.60;;;;;;;;;;4994310;28;20533;-61
2023/08/31 05:12:17;;;;;;;39.85;23.10;;;;;;;;;;4996859;28;20041;-60
2023/08/31 05:14:44;;;;;;;37.85;22.98;;;;;;;;;;4994582;28;20033;-61
2023/08/31 05:17:10;;;;;;;40.13;23.30;;;;;;;;;;4993818;28;20038;-60
2023/08/31 05:19:37;;;;;;;37.30;22.40;;;;;;;;;;4995097;28;20073;-60
2023/08/31 05:22:04;;;;;;;34.42;21.95;;;;;;;;;;5010186;28;20623;-60
2023/08/31 05:24:31;;;;;;;38.92;24.15;;;;;;;;;;4995966;28;20038;-60
2023/08/31 05:26:57;;;;;;;39.97;23.38;;;;;;;;;;4997023;28;20050;-60
2023/08/31 05:29:24;;;;;;;39.63;24.58;;;;;;;;;;4992851;28;20040;-59
2023/08/31 05:31:53;;;;;;;41.20;25.63;;;;;;;;;;4995301;28;20502;-60
2023/08/31 05:34:23;;;;;;;45.08;25.45;;;;;;;;;;4990980;28;20075;-60
2023/08/31 05:36:49;;;;;;;42.80;25.08;;;;;;;;;;4993896;28;21059;-58
2023/08/31 05:39:16;;;;;;;39.05;24.85;;;;;;;;;;4994006;28;20057;-61
2023/08/31 05:41:44;;;;;;;49.28;28.40;;;;;;;;;;4999918;28;21533;-59
2023/08/31 05:44:11;;;;;;;45.85;27.85;;;;;;;;;;4994430;28;20075;-59
2023/08/31 05:46:39;;;;;;;46.88;28.55;;;;;;;;;;4993648;28;21426;-59
2023/08/31 05:49:06;;;;;;;53.88;32.03;;;;;;;;;;4993137;28;20597;-62
2023/08/31 05:51:33;;;;;;;55.03;34.42;;;;;;;;;;4993000;28;20133;-60
2023/08/31 05:53:59;;;;;;;53.83;32.95;;;;;;;;;;4992993;28;20062;-60
2023/08/31 05:56:26;;;;;;;54.58;32.13;;;;;;;;;;4992637;28;20164;-62
2023/08/31 05:58:54;;;;;;;54.88;22.70;;;;;;;;;;4994898;28;20428;-60
2023/08/31 06:01:22;;;;;;;49.97;22.25;;;;;;;;;;4994752;28;20534;-60
2023/08/31 06:03:49;;;;;;;30.58;15.25;;;;;;;;;;5007956;28;20065;-60
2023/08/31 06:06:15;;;;;;;22.48;12.18;;;;;;;;;;4993931;28;20050;-60
2023/08/31 06:08:43;;;;;;;20.45;11.48;;;;;;;;;;4991833;28;20215;-61
2023/08/31 06:11:28;;;;;;;28.17;13.48;;;;;;;;;;4980532;28;20133;-66
2023/08/31 06:13:55;;;;;;;23.50;12.40;;;;;;;;;;4974410;28;20202;-64
2023/08/31 06:16:22;;;;;;;25.95;13.93;;;;;;;;;;4982251;28;20042;-64
2023/08/31 06:18:49;;;;;;;21.50;10.65;;;;;;;;;;4970945;28;20046;-64
2023/08/31 06:21:15;;;;;;;21.35;10.57;;;;;;;;;;4982977;28;20038;-64
2023/08/31 06:23:42;;;;;;;21.85;10.63;;;;;;;;;;4973869;28;20636;-64
2023/08/31 06:26:09;;;;;;;20.67;10.82;;;;;;;;;;4983754;28;20542;-64
2023/08/31 06:28:35;;;;;;;24.65;12.20;;;;;;;;;;4981441;28;20039;-64
2023/08/31 06:31:02;;;;;;;24.85;12.68;;;;;;;;;;4982603;28;20098;-64
2023/08/31 06:33:29;;;;;;;26.02;13.40;;;;;;;;;;4981858;28;20050;-64
2023/08/31 06:35:55;;;;;;;19.85;11.48;;;;;;;;;;4983335;28;20444;-64
2023/08/31 06:38:22;;;;;;;22.02;12.23;;;;;;;;;;4982155;28;20525;-64
2023/08/31 06:40:48;;;;;;;23.38;12.13;;;;;;;;;;4984228;28;20056;-66
2023/08/31 06:43:15;;;;;;;28.23;15.63;;;;;;;;;;4998313;28;20050;-66
2023/08/31 06:45:41;;;;;;;23.30;14.23;;;;;;;;;;4991255;28;20042;-68
2023/08/31 06:48:09;;;;;;;19.90;13.23;;;;;;;;;;4990821;28;20846;-65
2023/08/31 06:50:35;;;;;;;25.73;14.40;;;;;;;;;;4996840;28;20052;-65
2023/08/31 06:53:03;;;;;;;33.47;19.60;;;;;;;;;;4992750;28;20081;-64
2023/08/31 06:55:29;;;;;;;44.20;24.50;;;;;;;;;;4993583;28;20045;-64
2023/08/31 06:57:56;;;;;;;64.15;33.97;;;;;;;;;;5002486;28;20116;-63
2023/08/31 07:00:22;;;;;;;63.55;38.20;;;;;;;;;;4993630;28;20052;-64
2023/08/31 07:03:21;;;;;;;87.60;49.10;;;;;;;;;;5097333;23;20045;-63
2023/08/31 07:05:47;;;;;;;87.82;49.50;;;;;;;;;;4962925;28;20057;-63
2023/08/31 07:08:14;;;;;;;82.97;46.45;;;;;;;;;;4965918;28;20034;-63
2023/08/31 07:10:40;;;;;;;69.75;42.10;;;;;;;;;;4963055;28;20114;-63
2023/08/31 07:13:07;;;;;;;73.78;40.88;;;;;;;;;;4967494;28;20070;-64
2023/08/31 07:15:33;;;;;;;75.13;41.10;;;;;;;;;;4945133;28;20755;-63
2023/08/31 07:18:00;;;;;;;69.93;40.88;;;;;;;;;;4967003;28;20197;-64
2023/08/31 07:20:26;;;;;;;56.88;33.47;;;;;;;;;;4967841;28;20125;-64
2023/08/31 07:22:54;;;;;;;43.78;27.02;;;;;;;;;;4968392;28;20118;-64
2023/08/31 07:25:21;;;;;;;54.60;30.67;;;;;;;;;;4968615;28;20565;-63
2023/08/31 07:27:48;;;;;;;69.75;40.42;;;;;;;;;;4967576;28;20108;-63
2023/08/31 07:30:16;;;;;;;75.65;41.83;;;;;;;;;;4944798;28;20030;-64
2023/08/31 07:32:43;;;;;;;89.78;50.80;;;;;;;;;;4968431;28;21960;-64
2023/08/31 07:35:11;;;;;;;82.82;48.20;;;;;;;;;;4968207;28;20066;-65
2023/08/31 07:37:37;;;;;;;80.43;45.90;;;;;;;;;;4967363;28;20030;-63
2023/08/31 07:40:08;;;;;;;76.53;42.50;;;;;;;;;;4967406;28;20042;-65
2023/08/31 07:42:36;;;;;;;79.32;43.13;;;;;;;;;;4967648;28;20058;-66
2023/08/31 07:45:03;;;;;;;66.57;38.50;;;;;;;;;;4966291;28;20110;-67
2023/08/31 07:47:29;;;;;;;69.90;38.25;;;;;;;;;;4966630;28;20042;-64
2023/08/31 07:49:56;;;;;;;59.17;35.67;;;;;;;;;;4967198;28;21586;-63
2023/08/31 07:52:22;;;;;;;58.90;33.28;;;;;;;;;;4966485;28;20030;-63
2023/08/31 07:54:49;;;;;;;61.80;35.33;;;;;;;;;;4966413;28;20042;-63
2023/08/31 07:57:16;;;;;;;66.07;33.92;;;;;;;;;;4965931;28;20510;-62
2023/08/31 07:59:42;;;;;;;58.58;32.38;;;;;;;;;;4965950;28;20049;-62
2023/08/31 08:02:09;;;;;;;52.42;31.63;;;;;;;;;;4966310;28;20196;-63
2023/08/31 08:04:35;;;;;;;53.28;30.85;;;;;;;;;;4973602;28;20054;-63
2023/08/31 08:07:03;;;;;;;51.15;27.48;;;;;;;;;;4986476;28;20065;-63
2023/08/31 08:09:30;;;;;;;40.95;22.15;;;;;;;;;;4985902;28;20029;-63
2023/08/31 08:11:56;;;;;;;32.90;19.90;;;;;;;;;;4986696;28;20033;-65
2023/08/31 08:14:23;;;;;;;57.50;29.95;;;;;;;;;;4986614;28;20084;-64
2023/08/31 08:16:49;;;;;;;84.75;45.05;;;;;;;;;;4986810;28;20041;-62
2023/08/31 08:19:22;;;;;;;96.55;52.53;;;;;;;;;;4982051;28;20041;-63
2023/08/31 08:21:48;;;;;;;103.78;57.67;;;;;;;;;;4970238;28;20383;-64
2023/08/31 08:24:15;;;;;;;110.03;60.88;;;;;;;;;;4971141;28;20069;-62
2023/08/31 08:26:41;;;;;;;125.05;69.47;;;;;;;;;;4983181;28;20599;-62
2023/08/31 08:29:08;;;;;;;120.43;69.50;;;;;;;;;;4985315;28;20086;-63
2023/08/31 08:31:35;;;;;;;125.43;71.20;;;;;;;;;;4973089;28;20065;-64
2023/08/31 08:34:03;;;;;;;135.18;74.07;;;;;;;;;;4971370;28;20029;-62
2023/08/31 08:36:30;;;;;;;127.45;72.05;;;;;;;;;;4986145;28;20502;-63
2023/08/31 08:38:56;;;;;;;136.45;74.43;;;;;;;;;;4985033;28;20034;-63
2023/08/31 08:41:29;;;;;;;135.23;75.72;;;;;;;;;;4983336;28;20026;-63
2023/08/31 08:43:55;;;;;;;;;;;;;;;;;;4983211;28;21367;-63
2023/08/31 08:46:23;;;;;;;130.52;74.07;;;;;;;;;;4984767;28;20408;-65
2023/08/31 08:48:50;;;;;;;137.80;77.10;;;;;;;;;;4979116;28;20029;-63
2023/08/31 08:51:16;;;;;;;143.60;84.10;;;;;;;;;;4980029;28;20033;-65
2023/08/31 08:53:44;;;;;;;140.90;80.22;;;;;;;;;;4986466;28;20037;-64
2023/08/31 08:56:10;;;;;;;139.68;81.78;;;;;;;;;;4987324;28;20026;-63
2023/08/31 08:58:37;;;;;;;143.32;81.30;;;;;;;;;;4983591;28;20034;-63
2023/08/31 09:01:05;;;;;;;142.13;83.22;;;;;;;;;;4985864;28;20583;-63
2023/08/31 09:03:31;;;;;;;144.93;82.97;;;;;;;;;;4985283;28;20031;-63
2023/08/31 09:06:02;;;;;;;143.23;83.45;;;;;;;;;;4985886;28;20041;-63
2023/08/31 09:08:29;;;;;;;146.02;82.75;;;;;;;;;;4985388;28;20128;-62
2023/08/31 09:10:59;;;;;;;145.85;85.32;;;;;;;;;;4986197;28;20080;-63
2023/08/31 09:13:29;;;;;;;142.57;81.85;;;;;;;;;;4989783;28;20034;-64
2023/08/31 09:15:59;;;;;;;142.38;84.10;;;;;;;;;;4986556;28;20140;-63
2023/08/31 09:18:35;;;;;;;145.70;84.78;;;;;;;;;;4982282;28;20045;-64
2023/08/31 09:21:02;;;;;;;133.82;76.00;;;;;;;;;;4993430;28;20029;-63
2023/08/31 09:23:28;;;;;;;142.35;81.95;;;;;;;;;;4983981;28;20030;-63
2023/08/31 09:25:56;;;;;;;133.13;79.68;;;;;;;;;;4972326;28;20061;-65
2023/08/31 09:28:26;;;;;;;140.90;78.85;;;;;;;;;;4976731;28;20168;-65
2023/08/31 09:30:53;;;;;;;129.50;76.03;;;;;;;;;;4989504;28;20025;-65
2023/08/31 09:33:20;;;;;;;145.40;81.30;;;;;;;;;;4983140;28;20041;-65
2023/08/31 09:35:51;;;;;;;144.63;81.60;;;;;;;;;;4981214;28;20080;-67
2023/08/31 09:38:37;;;;;;;143.05;82.82;;;;;;;;;;4988961;28;20025;-65
2023/08/31 09:41:07;;;;;;;152.20;87.40;;;;;;;;;;4921900;28;20043;-64
2023/08/31 09:43:33;;;;;;;146.25;86.18;;;;;;;;;;4923993;28;20397;-65
2023/08/31 09:46:00;;;;;;;152.10;87.45;;;;;;;;;;4929793;28;20046;-64
2023/08/31 09:48:27;;;;;;;153.07;85.00;;;;;;;;;;4927825;28;20039;-64
2023/08/31 09:50:55;;;;;;;142.13;81.07;;;;;;;;;;4922303;28;20066;-65
2023/08/31 09:53:22;;;;;;;133.27;75.03;;;;;;;;;;4914023;29;20043;-64
2023/08/31 09:55:49;;;;;;;140.10;79.63;;;;;;;;;;4914151;29;20047;-65
2023/08/31 09:58:19;;;;;;;142.55;78.10;;;;;;;;;;4914913;29;21354;-63
2023/08/31 10:00:47;;;;;;;122.47;70.30;;;;;;;;;;4914711;29;20048;-64
2023/08/31 10:03:15;;;;;;;143.30;82.93;;;;;;;;;;4923609;28;20521;-63
2023/08/31 10:05:45;;;;;;;141.02;82.90;;;;;;;;;;4921060;28;20039;-63
2023/08/31 10:08:13;;;;;;;139.82;79.40;;;;;;;;;;4918697;28;20150;-64
2023/08/31 10:10:40;;;;;;;148.63;84.60;;;;;;;;;;4918714;28;20108;-65
2023/08/31 10:13:06;;;;;;;136.93;77.28;;;;;;;;;;4980876;28;20596;-65
2023/08/31 10:15:34;;;;;;;142.68;82.38;;;;;;;;;;4974181;28;20164;-64
2023/08/31 10:18:02;;;;;;;156.43;85.90;;;;;;;;;;4971845;28;20061;-69
2023/08/31 10:20:33;;;;;;;152.02;85.03;;;;;;;;;;4972413;28;20683;-64
2023/08/31 10:23:00;;;;;;;149.82;85.78;;;;;;;;;;4987324;28;20038;-64
2023/08/31 10:25:46;;;;;;;146.07;83.70;;;;;;;;;;4988838;28;20105;-64
2023/08/31 10:28:19;;;;;;;150.88;86.18;;;;;;;;;;4986413;28;20494;-64
2023/08/31 10:31:05;;;;;;;149.35;88.68;;;;;;;;;;4988677;28;20148;-65
2023/08/31 10:33:42;;;;;;;149.98;86.40;;;;;;;;;;4988319;28;20444;-64
2023/08/31 10:36:15;;;;;;;156.05;87.45;;;;;;;;;;4986242;28;20042;-65
2023/08/31 10:38:42;;;;;;;146.02;88.70;;;;;;;;;;4986969;28;20694;-66
2023/08/31 10:41:08;;;;;;;151.55;88.97;;;;;;;;;;4986525;28;20505;-64
2023/08/31 10:43:45;;;;;;;145.13;85.43;;;;;;;;;;4987326;28;20995;-64
2023/08/31 10:46:18;;;;;;;141.48;83.95;;;;;;;;;;4987546;28;20043;-64
2023/08/31 10:48:51;;;;;;;147.40;86.82;;;;;;;;;;4986751;28;20041;-63
2023/08/31 10:51:21;;;;;;;138.32;83.82;;;;;;;;;;4987164;28;20106;-63
2023/08/31 10:53:48;;;;;;;140.77;83.82;;;;;;;;;;4985734;28;20025;-63
2023/08/31 10:56:16;;;;;;;138.77;82.78;;;;;;;;;;4987988;28;20026;-65
2023/08/31 10:58:44;;;;;;;123.07;66.65;;;;;;;;;;4987430;28;20040;-63
2023/08/31 11:01:11;;;;;;;128.05;75.80;;;;;;;;;;4987957;28;20031;-63
2023/08/31 11:03:57;;;;;;;117.82;69.93;;;;;;;;;;4985626;28;20078;-63
2023/08/31 11:06:28;;;;;;;116.75;70.35;;;;;;;;;;4973788;28;20045;-64
2023/08/31 11:08:56;;;;;;;117.80;73.47;;;;;;;;;;4970657;28;20771;-64
2023/08/31 11:11:24;;;;;;;111.00;66.60;;;;;;;;;;4957639;28;20600;-65
2023/08/31 11:13:57;;;;;;;115.25;69.57;;;;;;;;;;4970477;28;20499;-64
2023/08/31 11:16:24;;;;;;;105.00;63.90;;;;;;;;;;4982772;28;20081;-64
2023/08/31 11:18:50;;;;;;;105.80;63.13;;;;;;;;;;4987178;28;20062;-63
2023/08/31 11:21:17;;;;;;;107.43;61.80;;;;;;;;;;4988853;28;20048;-64
2023/08/31 11:23:44;;;;;;;92.97;56.00;;;;;;;;;;4987841;28;20568;-64
2023/08/31 11:26:11;;;;;;;86.40;47.55;;;;;;;;;;4986661;28;20038;-63
2023/08/31 11:28:37;;;;;;;95.80;54.90;;;;;;;;;;4985847;28;20033;-64
2023/08/31 11:31:04;;;;;;;95.93;53.58;;;;;;;;;;4979586;28;20034;-64
2023/08/31 11:33:33;;;;;;;95.85;53.10;;;;;;;;;;4986597;28;20442;-63
2023/08/31 11:36:00;;;;;;;82.75;47.95;;;;;;;;;;4986378;28;20127;-64
2023/08/31 11:38:27;;;;;;;93.45;54.65;;;;;;;;;;4985463;28;20039;-63
2023/08/31 11:40:57;;;;;;;74.25;41.25;;;;;;;;;;4986569;28;20034;-63
2023/08/31 11:43:24;;;;;;;101.95;53.72;;;;;;;;;;4986177;28;20026;-63
2023/08/31 11:45:51;;;;;;;96.30;55.60;;;;;;;;;;4986386;28;20084;-63
2023/08/31 11:48:17;;;;;;;97.38;55.25;;;;;;;;;;4978169;28;20390;-63
2023/08/31 11:50:44;;;;;;;78.80;44.83;;;;;;;;;;4984228;28;20071;-63
2023/08/31 11:53:11;;;;;;;99.47;54.85;;;;;;;;;;4986493;28;20390;-63
2023/08/31 11:55:37;;;;;;;96.90;54.63;;;;;;;;;;4983693;28;20133;-63
2023/08/31 12:01:03;;;;;;;108.22;55.17;;;;;;;;;;4834593;23;20176;-63
2023/08/31 12:03:43;;;;;;;115.07;62.15;;;;;;;;;;5032693;28;20073;-63
2023/08/31 12:06:10;;;;;;;112.38;62.15;;;;;;;;;;5031842;28;20037;-62
2023/08/31 12:08:38;;;;;;;109.30;59.63;;;;;;;;;;5034866;28;20025;-63
2023/08/31 12:11:07;;;;;;;107.38;58.22;;;;;;;;;;5032983;28;20032;-63
2023/08/31 12:13:34;;;;;;;108.45;59.42;;;;;;;;;;5034428;28;20044;-64
2023/08/31 12:16:01;;;;;;;105.32;55.58;;;;;;;;;;5030551;28;20032;-64
2023/08/31 12:18:33;;;;;;;101.80;56.35;;;;;;;;;;5025572;28;20029;-63
2023/08/31 12:20:59;;;;;;;104.38;55.88;;;;;;;;;;5031474;28;21109;-65
2023/08/31 12:23:26;;;;;;;95.25;54.00;;;;;;;;;;5033510;28;20087;-63
2023/08/31 12:28:34;;;;;;;92.13;50.13;;;;;;;;;;4402080;23;20245;-64
2023/08/31 12:31:01;;;;;;;93.55;51.47;;;;;;;;;;5001883;28;20357;-63
2023/08/31 12:33:28;;;;;;;91.43;47.67;;;;;;;;;;5003449;28;20385;-64
2023/08/31 12:35:54;;;;;;;93.18;50.25;;;;;;;;;;5015501;28;20544;-63
2023/08/31 12:38:21;;;;;;;92.68;52.70;;;;;;;;;;5027032;28;20546;-64
2023/08/31 12:40:48;;;;;;;96.35;51.83;;;;;;;;;;5030172;28;20493;-64
2023/08/31 12:43:16;;;;;;;92.07;50.78;;;;;;;;;;5030214;28;20036;-63
2023/08/31 12:45:42;;;;;;;90.78;50.22;;;;;;;;;;5028045;28;20029;-63
2023/08/31 12:48:09;;;;;;;98.05;53.20;;;;;;;;;;5034281;28;20131;-63
2023/08/31 12:50:35;;;;;;;96.78;52.25;;;;;;;;;;5034154;28;20033;-64
2023/08/31 12:53:03;;;;;;;88.70;50.55;;;;;;;;;;5034557;28;20382;-63
2023/08/31 12:55:30;;;;;;;97.95;52.55;;;;;;;;;;5035039;28;20480;-64
2023/08/31 12:57:57;;;;;;;78.00;42.15;;;;;;;;;;5033942;28;20029;-62
2023/08/31 13:00:24;;;;;;;87.53;49.03;;;;;;;;;;5034578;28;20579;-63
2023/08/31 13:02:51;;;;;;;88.57;50.10;;;;;;;;;;5034260;28;20102;-59
2023/08/31 13:05:18;;;;;;;88.22;50.30;;;;;;;;;;5033893;28;20077;-68
2023/08/31 13:07:44;;;;;;;67.82;36.42;;;;;;;;;;5033761;28;20036;-64
2023/08/31 13:10:11;;;;;;;88.05;48.85;;;;;;;;;;5035440;28;20033;-63
2023/08/31 13:12:37;;;;;;;87.72;47.08;;;;;;;;;;5035167;28;21373;-63
2023/08/31 13:15:04;;;;;;;83.10;48.13;;;;;;;;;;5031343;28;20519;-63
2023/08/31 13:17:31;;;;;;;85.15;48.35;;;;;;;;;;5019231;28;20111;-64
2023/08/31 13:19:58;;;;;;;85.03;47.55;;;;;;;;;;5033865;28;20024;-63
2023/08/31 13:22:24;;;;;;;84.28;46.95;;;;;;;;;;5034538;28;20037;-63
2023/08/31 13:24:51;;;;;;;66.00;35.88;;;;;;;;;;5034025;28;20489;-63
2023/08/31 13:27:18;;;;;;;80.95;46.40;;;;;;;;;;5033284;28;20080;-63
2023/08/31 13:29:45;;;;;;;82.90;47.55;;;;;;;;;;5032538;28;20053;-64
2023/08/31 13:32:11;;;;;;;53.17;32.05;;;;;;;;;;5033570;28;20036;-62
2023/08/31 13:34:38;;;;;;;77.68;42.65;;;;;;;;;;5033238;28;20036;-62
2023/08/31 13:37:05;;;;;;;72.70;43.40;;;;;;;;;;5033607;28;20033;-66
2023/08/31 13:39:32;;;;;;;80.63;46.33;;;;;;;;;;5033553;28;20499;-62
2023/08/31 13:41:58;;;;;;;53.22;30.13;;;;;;;;;;5032870;28;20037;-63
2023/08/31 13:44:25;;;;;;;85.30;46.38;;;;;;;;;;5033086;28;20029;-66
2023/08/31 13:46:52;;;;;;;76.30;44.85;;;;;;;;;;5033317;28;20049;-63
2023/08/31 13:49:19;;;;;;;73.15;42.33;;;;;;;;;;5033246;28;20025;-63
2023/08/31 13:51:45;;;;;;;70.13;41.70;;;;;;;;;;5032979;28;20098;-64
2023/08/31 13:54:12;;;;;;;60.08;34.13;;;;;;;;;;5034418;28;20056;-63
2023/08/31 13:56:38;;;;;;;57.35;35.58;;;;;;;;;;5034296;28;20052;-63
2023/08/31 13:59:05;;;;;;;59.75;37.60;;;;;;;;;;5033549;28;20033;-62
2023/08/31 14:01:32;;;;;;;65.85;38.42;;;;;;;;;;5034739;28;20053;-65
2023/08/31 14:03:58;;;;;;;64.50;37.90;;;;;;;;;;5020034;28;20041;-63
2023/08/31 14:06:25;;;;;;;58.22;34.22;;;;;;;;;;5033976;28;20037;-63
2023/08/31 14:08:52;;;;;;;63.00;36.67;;;;;;;;;;5033612;28;20033;-63
2023/08/31 14:11:18;;;;;;;56.75;34.38;;;;;;;;;;5032891;28;20044;-62
2023/08/31 14:13:46;;;;;;;60.60;36.03;;;;;;;;;;5032692;28;20033;-65
2023/08/31 14:16:13;;;;;;;54.65;34.20;;;;;;;;;;5032373;28;20378;-63
2023/08/31 14:18:39;;;;;;;57.90;34.00;;;;;;;;;;5032711;28;20021;-64
2023/08/31 14:21:06;;;;;;;54.17;32.70;;;;;;;;;;5032127;28;20116;-64
2023/08/31 14:23:33;;;;;;;51.97;31.70;;;;;;;;;;5032931;28;20061;-63